createdAt,value
2023-05-14T00:00:01.514Z,1008.27
2023-05-14T00:01:01.496Z,1008.27
2023-05-14T00:02:01.665Z,1008.26
2023-05-14T00:03:01.493Z,1008.26
2023-05-14T00:04:01.472Z,1008.26
2023-05-14T00:05:01.403Z,1008.26
2023-05-14T00:06:01.411Z,1008.25
2023-05-14T00:07:01.429Z,1008.25
2023-05-14T00:08:01.383Z,1008.24
2023-05-14T00:09:01.412Z,1008.23
2023-05-14T00:10:01.347Z,1008.21
2023-05-14T00:11:01.337Z,1008.19
2023-05-14T00:12:01.333Z,1008.18
2023-05-14T00:13:01.358Z,1008.17
2023-05-14T00:14:01.312Z,1008.17
2023-05-14T00:15:01.589Z,1008.17
2023-05-14T00:16:01.305Z,1008.18
2023-05-14T00:17:01.343Z,1008.19
2023-05-14T00:18:01.321Z,1008.20
2023-05-14T00:19:01.339Z,1008.21
2023-05-14T00:20:01.282Z,1008.22
2023-05-14T00:21:01.260Z,1008.24
2023-05-14T00:22:01.224Z,1008.24
2023-05-14T00:23:01.269Z,1008.24
2023-05-14T00:24:01.229Z,1008.24
2023-05-14T00:25:01.277Z,1008.26
2023-05-14T00:26:01.188Z,1008.26
2023-05-14T00:27:01.203Z,1008.26
2023-05-14T00:28:01.196Z,1008.26
2023-05-14T00:29:01.198Z,1008.24
2023-05-14T00:30:01.403Z,1008.23
2023-05-14T00:31:01.157Z,1008.22
2023-05-14T00:32:01.161Z,1008.21
2023-05-14T00:33:01.278Z,1008.20
2023-05-14T00:34:01.093Z,1008.19
2023-05-14T00:35:01.106Z,1008.17
2023-05-14T00:36:01.092Z,1008.16
2023-05-14T00:37:01.062Z,1008.14
2023-05-14T00:38:01.073Z,1008.13
2023-05-14T00:39:01.073Z,1008.13
2023-05-14T00:40:01.074Z,1008.11
2023-05-14T00:41:01.699Z,1008.08
2023-05-14T00:42:01.049Z,1008.06
2023-05-14T00:43:01.086Z,1008.05
2023-05-14T00:44:01.017Z,1008.04
2023-05-14T00:45:01.018Z,1008.04
2023-05-14T00:46:01.007Z,1008.03
2023-05-14T00:47:01.088Z,1008.03
2023-05-14T00:48:00.993Z,1008.02
2023-05-14T00:49:01.070Z,1008.02
2023-05-14T00:50:00.926Z,1008.01
2023-05-14T00:51:00.952Z,1008.00
2023-05-14T00:52:01.201Z,1008.00
2023-05-14T00:53:00.950Z,1007.99
2023-05-14T00:54:00.909Z,1007.97
2023-05-14T00:55:00.890Z,1007.97
2023-05-14T00:56:00.869Z,1007.96
2023-05-14T00:57:00.902Z,1007.97
2023-05-14T00:58:00.891Z,1007.97
2023-05-14T00:59:00.890Z,1007.96
2023-05-14T01:00:00.929Z,1007.96
2023-05-14T01:01:00.847Z,1007.96
2023-05-14T01:02:00.840Z,1007.97
2023-05-14T01:03:00.882Z,1007.98
2023-05-14T01:04:00.916Z,1007.97
2023-05-14T01:05:00.833Z,1007.97
2023-05-14T01:06:00.802Z,1007.98
2023-05-14T01:07:00.749Z,1007.98
2023-05-14T01:08:00.773Z,1007.99
2023-05-14T01:09:00.775Z,1007.99
2023-05-14T01:10:00.730Z,1007.99
2023-05-14T01:11:00.766Z,1007.98
2023-05-14T01:12:00.735Z,1007.97
2023-05-14T01:13:00.680Z,1007.97
2023-05-14T01:14:00.670Z,1007.97
2023-05-14T01:15:00.699Z,1007.97
2023-05-14T01:16:00.753Z,1007.98
2023-05-14T01:17:00.703Z,1007.97
2023-05-14T01:18:00.640Z,1007.97
2023-05-14T01:19:00.745Z,1007.95
2023-05-14T01:20:00.669Z,1007.94
2023-05-14T01:21:00.633Z,1007.93
2023-05-14T01:22:00.623Z,1007.91
2023-05-14T01:23:00.605Z,1007.90
2023-05-14T01:24:00.643Z,1007.88
2023-05-14T01:25:00.656Z,1007.86
2023-05-14T01:26:00.568Z,1007.84
2023-05-14T01:27:00.692Z,1007.83
2023-05-14T01:28:00.590Z,1007.83
2023-05-14T01:29:00.548Z,1007.83
2023-05-14T01:30:00.614Z,1007.84
2023-05-14T01:31:00.505Z,1007.85
2023-05-14T01:32:00.567Z,1007.85
2023-05-14T01:33:00.699Z,1007.85
2023-05-14T01:34:00.556Z,1007.84
2023-05-14T01:35:00.467Z,1007.83
2023-05-14T01:36:00.464Z,1007.84
2023-05-14T01:37:00.490Z,1007.83
2023-05-14T01:38:00.489Z,1007.84
2023-05-14T01:39:00.434Z,1007.85
2023-05-14T01:40:00.437Z,1007.86
2023-05-14T01:41:00.404Z,1007.86
2023-05-14T01:42:00.390Z,1007.86
2023-05-14T01:43:00.485Z,1007.86
2023-05-14T01:44:00.438Z,1007.85
2023-05-14T01:45:00.360Z,1007.85
2023-05-14T01:46:00.445Z,1007.85
2023-05-14T01:47:00.322Z,1007.86
2023-05-14T01:48:00.408Z,1007.87
2023-05-14T01:49:00.310Z,1007.87
2023-05-14T01:50:00.317Z,1007.88
2023-05-14T01:51:00.361Z,1007.89
2023-05-14T01:52:00.267Z,1007.89
2023-05-14T01:53:00.263Z,1007.90
2023-05-14T01:54:00.372Z,1007.91
2023-05-14T01:55:00.248Z,1007.91
2023-05-14T01:56:00.274Z,1007.91
2023-05-14T01:57:00.312Z,1007.91
2023-05-14T01:58:00.223Z,1007.90
2023-05-14T01:59:00.269Z,1007.89
2023-05-14T02:00:00.260Z,1007.88
2023-05-14T02:01:00.296Z,1007.87
2023-05-14T02:02:00.235Z,1007.85
2023-05-14T02:03:00.267Z,1007.83
2023-05-14T02:04:00.297Z,1007.82
2023-05-14T02:05:00.185Z,1007.80
2023-05-14T02:06:00.148Z,1007.80
2023-05-14T02:07:00.142Z,1007.79
2023-05-14T02:08:00.130Z,1007.79
2023-05-14T02:09:00.169Z,1007.78
2023-05-14T02:10:00.137Z,1007.77
2023-05-14T02:11:00.103Z,1007.77
2023-05-14T02:12:00.160Z,1007.77
2023-05-14T02:13:00.110Z,1007.78
2023-05-14T02:14:00.166Z,1007.78
2023-05-14T02:15:00.054Z,1007.79
2023-05-14T02:16:00.055Z,1007.80
2023-05-14T02:17:00.146Z,1007.81
2023-05-14T02:18:00.015Z,1007.82
2023-05-14T02:19:00.213Z,1007.82
2023-05-14T02:20:00.042Z,1007.82
2023-05-14T02:20:59.969Z,1007.83
2023-05-14T02:22:00.012Z,1007.82
2023-05-14T02:22:59.956Z,1007.82
2023-05-14T02:23:59.964Z,1007.80
2023-05-14T02:24:59.959Z,1007.78
2023-05-14T02:25:59.963Z,1007.77
2023-05-14T02:27:00.002Z,1007.75
2023-05-14T02:27:59.901Z,1007.74
2023-05-14T02:28:59.898Z,1007.73
2023-05-14T02:29:59.900Z,1007.71
2023-05-14T02:30:59.946Z,1007.70
2023-05-14T02:31:59.900Z,1007.70
2023-05-14T02:33:00.040Z,1007.70
2023-05-14T02:33:59.853Z,1007.70
2023-05-14T02:34:59.986Z,1007.70
2023-05-14T02:35:59.838Z,1007.71
2023-05-14T02:36:59.841Z,1007.69
2023-05-14T02:37:59.895Z,1007.69
2023-05-14T02:38:59.777Z,1007.69
2023-05-14T02:39:59.864Z,1007.68
2023-05-14T02:40:59.773Z,1007.69
2023-05-14T02:41:59.774Z,1007.68
2023-05-14T02:42:59.770Z,1007.68
2023-05-14T02:43:59.778Z,1007.68
2023-05-14T02:44:59.760Z,1007.67
2023-05-14T02:45:59.758Z,1007.66
2023-05-14T02:46:59.773Z,1007.65
2023-05-14T02:47:59.725Z,1007.65
2023-05-14T02:48:59.729Z,1007.64
2023-05-14T02:49:59.728Z,1007.64
2023-05-14T02:50:59.705Z,1007.63
2023-05-14T02:51:59.741Z,1007.62
2023-05-14T02:52:59.694Z,1007.63
2023-05-14T02:53:59.647Z,1007.63
2023-05-14T02:54:59.628Z,1007.63
2023-05-14T02:55:59.640Z,1007.64
2023-05-14T02:56:59.606Z,1007.64
2023-05-14T02:57:59.632Z,1007.64
2023-05-14T02:58:59.594Z,1007.63
2023-05-14T02:59:59.554Z,1007.63
2023-05-14T03:00:59.622Z,1007.63
2023-05-14T03:01:59.635Z,1007.62
2023-05-14T03:02:59.576Z,1007.62
2023-05-14T03:03:59.547Z,1007.62
2023-05-14T03:04:59.534Z,1007.63
2023-05-14T03:05:59.557Z,1007.63
2023-05-14T03:06:59.526Z,1007.62
2023-05-14T03:07:59.529Z,1007.62
2023-05-14T03:08:59.459Z,1007.61
2023-05-14T03:09:59.434Z,1007.61
2023-05-14T03:10:59.417Z,1007.59
2023-05-14T03:11:59.388Z,1007.58
2023-05-14T03:12:59.461Z,1007.57
2023-05-14T03:13:59.469Z,1007.55
2023-05-14T03:14:59.404Z,1007.55
2023-05-14T03:15:59.496Z,1007.55
2023-05-14T03:16:59.452Z,1007.55
2023-05-14T03:17:59.445Z,1007.55
2023-05-14T03:18:59.534Z,1007.56
2023-05-14T03:19:59.401Z,1007.57
2023-05-14T03:20:59.323Z,1007.58
2023-05-14T03:21:59.287Z,1007.59
2023-05-14T03:22:59.262Z,1007.60
2023-05-14T03:23:59.333Z,1007.61
2023-05-14T03:24:59.276Z,1007.62
2023-05-14T03:25:59.279Z,1007.61
2023-05-14T03:26:59.271Z,1007.61
2023-05-14T03:27:59.489Z,1007.61
2023-05-14T03:28:59.293Z,1007.60
2023-05-14T03:29:59.238Z,1007.60
2023-05-14T03:30:59.320Z,1007.60
2023-05-14T03:31:59.197Z,1007.60
2023-05-14T03:32:59.219Z,1007.60
2023-05-14T03:33:59.270Z,1007.60
2023-05-14T03:34:59.187Z,1007.61
2023-05-14T03:35:59.216Z,1007.62
2023-05-14T03:36:59.132Z,1007.63
2023-05-14T03:37:59.193Z,1007.63
2023-05-14T03:38:59.150Z,1007.62
2023-05-14T03:39:59.115Z,1007.61
2023-05-14T03:40:59.177Z,1007.60
2023-05-14T03:41:59.098Z,1007.59
2023-05-14T03:42:59.138Z,1007.58
2023-05-14T03:43:59.127Z,1007.57
2023-05-14T03:44:59.080Z,1007.56
2023-05-14T03:45:59.196Z,1007.55
2023-05-14T03:46:59.070Z,1007.55
2023-05-14T03:47:59.199Z,1007.54
2023-05-14T03:48:59.140Z,1007.54
2023-05-14T03:49:59.074Z,1007.53
2023-05-14T03:50:59.026Z,1007.53
2023-05-14T03:51:58.998Z,1007.53
2023-05-14T03:52:58.962Z,1007.54
2023-05-14T03:53:59.042Z,1007.54
2023-05-14T03:54:58.967Z,1007.54
2023-05-14T03:55:58.942Z,1007.55
2023-05-14T03:56:58.946Z,1007.56
2023-05-14T03:57:58.922Z,1007.56
2023-05-14T03:58:58.975Z,1007.57
2023-05-14T03:59:58.913Z,1007.57
2023-05-14T04:00:58.926Z,1007.56
2023-05-14T04:01:58.939Z,1007.55
2023-05-14T04:02:58.990Z,1007.53
2023-05-14T04:03:58.963Z,1007.52
2023-05-14T04:04:58.905Z,1007.51
2023-05-14T04:05:58.880Z,1007.50
2023-05-14T04:06:58.834Z,1007.51
2023-05-14T04:07:58.833Z,1007.51
2023-05-14T04:08:58.849Z,1007.52
2023-05-14T04:09:58.878Z,1007.53
2023-05-14T04:10:58.879Z,1007.54
2023-05-14T04:11:58.817Z,1007.55
2023-05-14T04:12:58.797Z,1007.56
2023-05-14T04:13:58.794Z,1007.56
2023-05-14T04:14:58.904Z,1007.57
2023-05-14T04:15:58.792Z,1007.57
2023-05-14T04:17:00.261Z,1007.57
2023-05-14T04:17:58.791Z,1007.58
2023-05-14T04:18:58.798Z,1007.59
2023-05-14T04:19:58.778Z,1007.61
2023-05-14T04:20:58.711Z,1007.62
2023-05-14T04:21:58.661Z,1007.63
2023-05-14T04:22:58.659Z,1007.64
2023-05-14T04:23:58.703Z,1007.65
2023-05-14T04:24:58.641Z,1007.66
2023-05-14T04:25:58.668Z,1007.67
2023-05-14T04:26:58.631Z,1007.67
2023-05-14T04:27:58.626Z,1007.67
2023-05-14T04:28:58.625Z,1007.68
2023-05-14T04:29:58.621Z,1007.68
2023-05-14T04:30:58.572Z,1007.69
2023-05-14T04:31:58.696Z,1007.69
2023-05-14T04:32:58.662Z,1007.70
2023-05-14T04:33:58.634Z,1007.70
2023-05-14T04:34:58.563Z,1007.71
2023-05-14T04:35:58.547Z,1007.72
2023-05-14T04:36:58.544Z,1007.72
2023-05-14T04:37:58.664Z,1007.73
2023-05-14T04:38:58.512Z,1007.74
2023-05-14T04:39:58.482Z,1007.75
2023-05-14T04:40:58.531Z,1007.74
2023-05-14T04:41:58.482Z,1007.74
2023-05-14T04:42:58.550Z,1007.74
2023-05-14T04:43:58.471Z,1007.73
2023-05-14T04:44:58.496Z,1007.73
2023-05-14T04:45:58.477Z,1007.73
2023-05-14T04:46:58.415Z,1007.73
2023-05-14T04:47:58.454Z,1007.72
2023-05-14T04:48:58.457Z,1007.72
2023-05-14T04:49:58.358Z,1007.73
2023-05-14T04:50:58.403Z,1007.73
2023-05-14T04:51:58.346Z,1007.73
2023-05-14T04:52:58.371Z,1007.74
2023-05-14T04:53:58.473Z,1007.74
2023-05-14T04:54:58.346Z,1007.74
2023-05-14T04:55:58.386Z,1007.74
2023-05-14T04:56:58.356Z,1007.74
2023-05-14T04:57:58.316Z,1007.74
2023-05-14T04:58:58.283Z,1007.75
2023-05-14T04:59:58.315Z,1007.76
2023-05-14T05:00:58.340Z,1007.77
2023-05-14T05:01:58.257Z,1007.79
2023-05-14T05:02:58.344Z,1007.79
2023-05-14T05:03:58.283Z,1007.80
2023-05-14T05:04:58.225Z,1007.81
2023-05-14T05:05:58.234Z,1007.81
2023-05-14T05:06:58.240Z,1007.81
2023-05-14T05:07:58.227Z,1007.81
2023-05-14T05:08:59.544Z,1007.80
2023-05-14T05:09:58.191Z,1007.79
2023-05-14T05:10:58.170Z,1007.77
2023-05-14T05:11:58.247Z,1007.76
2023-05-14T05:12:58.137Z,1007.74
2023-05-14T05:13:58.115Z,1007.73
2023-05-14T05:14:58.121Z,1007.73
2023-05-14T05:15:58.180Z,1007.72
2023-05-14T05:16:58.123Z,1007.72
2023-05-14T05:17:58.187Z,1007.73
2023-05-14T05:18:58.127Z,1007.73
2023-05-14T05:19:58.135Z,1007.73
2023-05-14T05:20:58.047Z,1007.73
2023-05-14T05:21:58.072Z,1007.73
2023-05-14T05:22:58.332Z,1007.73
2023-05-14T05:23:58.040Z,1007.74
2023-05-14T05:24:58.079Z,1007.75
2023-05-14T05:25:58.024Z,1007.76
2023-05-14T05:26:58.085Z,1007.75
2023-05-14T05:27:57.997Z,1007.75
2023-05-14T05:28:57.990Z,1007.75
2023-05-14T05:29:58.060Z,1007.75
2023-05-14T05:30:58.017Z,1007.76
2023-05-14T05:31:57.959Z,1007.74
2023-05-14T05:32:58.083Z,1007.73
2023-05-14T05:33:57.935Z,1007.71
2023-05-14T05:34:57.919Z,1007.71
2023-05-14T05:35:57.921Z,1007.71
2023-05-14T05:36:57.899Z,1007.72
2023-05-14T05:38:00.499Z,1007.71
2023-05-14T05:38:57.896Z,1007.71
2023-05-14T05:39:57.901Z,1007.70
2023-05-14T05:40:57.897Z,1007.70
2023-05-14T05:41:57.865Z,1007.71
2023-05-14T05:42:57.923Z,1007.71
2023-05-14T05:43:57.823Z,1007.71
2023-05-14T05:44:57.855Z,1007.70
2023-05-14T05:45:57.814Z,1007.70
2023-05-14T05:46:57.951Z,1007.70
2023-05-14T05:47:57.871Z,1007.71
2023-05-14T05:48:57.891Z,1007.71
2023-05-14T05:49:57.814Z,1007.71
2023-05-14T05:50:57.762Z,1007.72
2023-05-14T05:51:57.769Z,1007.73
2023-05-14T05:52:57.763Z,1007.71
2023-05-14T05:53:57.791Z,1007.69
2023-05-14T05:54:57.765Z,1007.68
2023-05-14T05:55:57.704Z,1007.68
2023-05-14T05:56:57.708Z,1007.68
2023-05-14T05:57:57.687Z,1007.68
2023-05-14T05:58:57.991Z,1007.70
2023-05-14T05:59:57.708Z,1007.69
2023-05-14T06:00:57.936Z,1007.68
2023-05-14T06:01:57.765Z,1007.67
2023-05-14T06:02:57.770Z,1007.65
2023-05-14T06:03:57.709Z,1007.64
2023-05-14T06:04:57.772Z,1007.65
2023-05-14T06:05:57.632Z,1007.69
2023-05-14T06:06:57.680Z,1007.71
2023-05-14T06:07:57.579Z,1007.71
2023-05-14T06:08:57.772Z,1007.69
2023-05-14T06:09:57.805Z,1007.69
2023-05-14T06:10:57.536Z,1007.69
2023-05-14T06:11:57.566Z,1007.70
2023-05-14T06:12:57.554Z,1007.73
2023-05-14T06:13:57.597Z,1007.73
2023-05-14T06:14:57.489Z,1007.75
2023-05-14T06:15:57.505Z,1007.75
2023-05-14T06:16:57.559Z,1007.73
2023-05-14T06:17:57.606Z,1007.71
2023-05-14T06:18:57.499Z,1007.70
2023-05-14T06:19:57.466Z,1007.70
2023-05-14T06:20:57.428Z,1007.70
2023-05-14T06:21:57.482Z,1007.71
2023-05-14T06:22:57.420Z,1007.73
2023-05-14T06:23:57.400Z,1007.71
2023-05-14T06:24:57.458Z,1007.71
2023-05-14T06:25:57.456Z,1007.71
2023-05-14T06:26:58.197Z,1007.72
2023-05-14T06:27:57.382Z,1007.74
2023-05-14T06:28:58.188Z,1007.75
2023-05-14T06:29:57.380Z,1007.76
2023-05-14T06:30:57.328Z,1007.76
2023-05-14T06:31:57.403Z,1007.76
2023-05-14T06:32:57.335Z,1007.75
2023-05-14T06:33:57.327Z,1007.73
2023-05-14T06:34:57.348Z,1007.73
2023-05-14T06:35:57.376Z,1007.73
2023-05-14T06:36:57.441Z,1007.75
2023-05-14T06:37:57.258Z,1007.73
2023-05-14T06:38:57.271Z,1007.72
2023-05-14T06:39:57.985Z,1007.75
2023-05-14T06:40:57.379Z,1007.73
2023-05-14T06:41:57.211Z,1007.75
2023-05-14T06:42:57.347Z,1007.76
2023-05-14T06:43:57.188Z,1007.78
2023-05-14T06:44:57.194Z,1007.78
2023-05-14T06:45:57.227Z,1007.79
2023-05-14T06:46:57.215Z,1007.79
2023-05-14T06:47:57.267Z,1007.78
2023-05-14T06:48:59.334Z,1007.78
2023-05-14T06:49:57.107Z,1007.80
2023-05-14T06:50:57.153Z,1007.80
2023-05-14T06:51:57.094Z,1007.80
2023-05-14T06:52:57.305Z,1007.79
2023-05-14T06:53:57.076Z,1007.79
2023-05-14T06:54:57.078Z,1007.79
2023-05-14T06:55:57.094Z,1007.75
2023-05-14T06:56:57.061Z,1007.75
2023-05-14T06:57:57.074Z,1007.74
2023-05-14T06:58:57.059Z,1007.72
2023-05-14T06:59:57.017Z,1007.71
2023-05-14T07:00:57.043Z,1007.72
2023-05-14T07:01:57.066Z,1007.71
2023-05-14T07:02:57.028Z,1007.72
2023-05-14T07:03:56.984Z,1007.72
2023-05-14T07:04:57.038Z,1007.74
2023-05-14T07:05:56.960Z,1007.73
2023-05-14T07:06:56.970Z,1007.72
2023-05-14T07:07:56.962Z,1007.71
2023-05-14T07:08:56.937Z,1007.71
2023-05-14T07:09:56.931Z,1007.73
2023-05-14T07:10:56.927Z,1007.70
2023-05-14T07:11:56.941Z,1007.72
2023-05-14T07:12:56.970Z,1007.71
2023-05-14T07:13:56.903Z,1007.70
2023-05-14T07:14:56.850Z,1007.70
2023-05-14T07:15:56.899Z,1007.69
2023-05-14T07:16:56.898Z,1007.68
2023-05-14T07:17:56.966Z,1007.66
2023-05-14T07:18:56.883Z,1007.65
2023-05-14T07:19:56.802Z,1007.64
2023-05-14T07:20:56.832Z,1007.63
2023-05-14T07:21:56.793Z,1007.62
2023-05-14T07:22:56.763Z,1007.61
2023-05-14T07:23:56.812Z,1007.58
2023-05-14T07:24:56.750Z,1007.57
2023-05-14T07:25:56.946Z,1007.54
2023-05-14T07:26:56.733Z,1007.54
2023-05-14T07:27:56.746Z,1007.54
2023-05-14T07:28:56.723Z,1007.53
2023-05-14T07:29:57.004Z,1007.52
2023-05-14T07:30:56.744Z,1007.53
2023-05-14T07:31:56.719Z,1007.53
2023-05-14T07:32:56.709Z,1007.51
2023-05-14T07:33:56.678Z,1007.51
2023-05-14T07:34:56.648Z,1007.54
2023-05-14T07:35:56.652Z,1007.50
2023-05-14T07:36:56.700Z,1007.49
2023-05-14T07:37:56.657Z,1007.49
2023-05-14T07:38:56.687Z,1007.50
2023-05-14T07:39:56.597Z,1007.47
2023-05-14T07:40:56.593Z,1007.48
2023-05-14T07:41:56.607Z,1007.48
2023-05-14T07:42:56.594Z,1007.47
2023-05-14T07:43:56.671Z,1007.49
2023-05-14T07:44:56.545Z,1007.45
2023-05-14T07:45:56.666Z,1007.46
2023-05-14T07:46:56.604Z,1007.48
2023-05-14T07:47:56.686Z,1007.49
2023-05-14T07:48:56.507Z,1007.50
2023-05-14T07:49:56.512Z,1007.52
2023-05-14T07:50:56.597Z,1007.53
2023-05-14T07:51:56.515Z,1007.50
2023-05-14T07:52:56.480Z,1007.49
2023-05-14T07:53:56.447Z,1007.50
2023-05-14T07:54:57.139Z,1007.48
2023-05-14T07:55:56.503Z,1007.47
2023-05-14T07:56:57.061Z,1007.46
2023-05-14T07:57:56.427Z,1007.47
2023-05-14T07:58:56.410Z,1007.47
2023-05-14T07:59:56.404Z,1007.44
2023-05-14T08:00:56.476Z,1007.44
2023-05-14T08:01:56.500Z,1007.40
2023-05-14T08:02:56.547Z,1007.42
2023-05-14T08:03:56.449Z,1007.41
2023-05-14T08:04:56.420Z,1007.40
2023-05-14T08:05:56.372Z,1007.40
2023-05-14T08:06:56.814Z,1007.38
2023-05-14T08:07:56.337Z,1007.36
2023-05-14T08:08:56.298Z,1007.36
2023-05-14T08:09:56.342Z,1007.35
2023-05-14T08:10:56.338Z,1007.34
2023-05-14T08:11:56.265Z,1007.33
2023-05-14T08:12:56.320Z,1007.33
2023-05-14T08:13:56.279Z,1007.34
2023-05-14T08:14:56.262Z,1007.33
2023-05-14T08:15:56.283Z,1007.31
2023-05-14T08:16:56.353Z,1007.31
2023-05-14T08:17:56.258Z,1007.29
2023-05-14T08:18:56.285Z,1007.30
2023-05-14T08:19:56.197Z,1007.29
2023-05-14T08:20:56.224Z,1007.27
2023-05-14T08:21:56.174Z,1007.24
2023-05-14T08:22:56.132Z,1007.24
2023-05-14T08:23:56.212Z,1007.24
2023-05-14T08:24:56.224Z,1007.26
2023-05-14T08:25:56.124Z,1007.24
2023-05-14T08:26:56.106Z,1007.20
2023-05-14T08:27:56.143Z,1007.18
2023-05-14T08:28:56.205Z,1007.15
2023-05-14T08:29:56.086Z,1007.14
2023-05-14T08:30:56.088Z,1007.13
2023-05-14T08:31:56.036Z,1007.14
2023-05-14T08:32:56.113Z,1007.12
2023-05-14T08:33:56.095Z,1007.13
2023-05-14T08:34:56.075Z,1007.10
2023-05-14T08:35:56.129Z,1007.10
2023-05-14T08:36:56.032Z,1007.09
2023-05-14T08:37:56.009Z,1007.06
2023-05-14T08:38:55.997Z,1007.06
2023-05-14T08:39:55.986Z,1007.02
2023-05-14T08:40:56.008Z,1007.00
2023-05-14T08:41:55.972Z,1006.98
2023-05-14T08:42:55.991Z,1007.00
2023-05-14T08:43:55.945Z,1006.99
2023-05-14T08:44:55.971Z,1006.95
2023-05-14T08:45:55.955Z,1006.98
2023-05-14T08:46:55.929Z,1006.93
2023-05-14T08:47:56.040Z,1006.94
2023-05-14T08:48:55.971Z,1006.90
2023-05-14T08:49:55.881Z,1006.86
2023-05-14T08:50:55.917Z,1006.85
2023-05-14T08:51:55.865Z,1006.84
2023-05-14T08:52:55.866Z,1006.85
2023-05-14T08:53:55.858Z,1006.86
2023-05-14T08:54:55.814Z,1006.84
2023-05-14T08:55:55.789Z,1006.82
2023-05-14T08:56:55.901Z,1006.82
2023-05-14T08:57:55.840Z,1006.83
2023-05-14T08:58:55.799Z,1006.83
2023-05-14T08:59:55.822Z,1006.79
2023-05-14T09:00:55.753Z,1006.78
2023-05-14T09:01:55.784Z,1006.77
2023-05-14T09:02:55.794Z,1006.78
2023-05-14T09:03:55.790Z,1006.76
2023-05-14T09:04:55.706Z,1006.78
2023-05-14T09:05:56.453Z,1006.74
2023-05-14T09:06:55.708Z,1006.75
2023-05-14T09:07:55.716Z,1006.71
2023-05-14T09:08:55.671Z,1006.70
2023-05-14T09:09:55.684Z,1006.67
2023-05-14T09:10:55.687Z,1006.62
2023-05-14T09:11:55.715Z,1006.64
2023-05-14T09:12:55.656Z,1006.60
2023-05-14T09:13:55.610Z,1006.68
2023-05-14T09:14:55.667Z,1006.62
2023-05-14T09:15:55.640Z,1006.62
2023-05-14T09:16:55.593Z,1006.63
2023-05-14T09:17:55.723Z,1006.63
2023-05-14T09:18:55.604Z,1006.60
2023-05-14T09:19:55.672Z,1006.59
2023-05-14T09:20:55.663Z,1006.55
2023-05-14T09:21:55.596Z,1006.55
2023-05-14T09:22:55.590Z,1006.54
2023-05-14T09:23:55.723Z,1006.54
2023-05-14T09:24:55.578Z,1006.54
2023-05-14T09:25:55.484Z,1006.55
2023-05-14T09:26:55.590Z,1006.57
2023-05-14T09:27:58.003Z,1006.56
2023-05-14T09:28:55.512Z,1006.54
2023-05-14T09:29:55.453Z,1006.52
2023-05-14T09:30:55.518Z,1006.54
2023-05-14T09:31:55.461Z,1006.52
2023-05-14T09:32:55.546Z,1006.51
2023-05-14T09:33:55.482Z,1006.49
2023-05-14T09:34:55.413Z,1006.50
2023-05-14T09:35:56.993Z,1006.51
2023-05-14T09:36:55.395Z,1006.52
2023-05-14T09:37:55.418Z,1006.49
2023-05-14T09:38:55.351Z,1006.50
2023-05-14T09:39:55.346Z,1006.47
2023-05-14T09:40:55.441Z,1006.51
2023-05-14T09:41:55.332Z,1006.48
2023-05-14T09:42:55.363Z,1006.49
2023-05-14T09:43:55.302Z,1006.47
2023-05-14T09:44:55.285Z,1006.43
2023-05-14T09:45:55.331Z,1006.49
2023-05-14T09:46:55.287Z,1006.52
2023-05-14T09:47:55.504Z,1006.50
2023-05-14T09:48:55.274Z,1006.50
2023-05-14T09:49:55.264Z,1006.51
2023-05-14T09:50:55.277Z,1006.53
2023-05-14T09:51:55.239Z,1006.55
2023-05-14T09:52:55.211Z,1006.58
2023-05-14T09:53:55.246Z,1006.55
2023-05-14T09:54:55.215Z,1006.57
2023-05-14T09:55:55.221Z,1006.52
2023-05-14T09:56:55.900Z,1006.54
2023-05-14T09:57:55.164Z,1006.48
2023-05-14T09:58:55.160Z,1006.46
2023-05-14T09:59:55.167Z,1006.50
2023-05-14T10:00:55.176Z,1006.49
2023-05-14T10:01:55.150Z,1006.48
2023-05-14T10:02:55.182Z,1006.51
2023-05-14T10:03:55.135Z,1006.44
2023-05-14T10:04:55.118Z,1006.45
2023-05-14T10:05:55.108Z,1006.47
2023-05-14T10:06:55.059Z,1006.49
2023-05-14T10:07:55.081Z,1006.45
2023-05-14T10:08:55.054Z,1006.44
2023-05-14T10:09:56.279Z,1006.42
2023-05-14T10:10:55.033Z,1006.47
2023-05-14T10:11:55.021Z,1006.46
2023-05-14T10:12:55.016Z,1006.44
2023-05-14T10:13:55.032Z,1006.46
2023-05-14T10:14:55.077Z,1006.46
2023-05-14T10:15:54.969Z,1006.41
2023-05-14T10:16:55.134Z,1006.42
2023-05-14T10:17:55.003Z,1006.46
2023-05-14T10:18:57.170Z,1006.43
2023-05-14T10:19:54.951Z,1006.45
2023-05-14T10:20:54.953Z,1006.41
2023-05-14T10:21:54.924Z,1006.42
2023-05-14T10:22:54.979Z,1006.41
2023-05-14T10:23:54.940Z,1006.41
2023-05-14T10:24:54.940Z,1006.43
2023-05-14T10:25:54.880Z,1006.42
2023-05-14T10:26:54.905Z,1006.40
2023-05-14T10:27:54.936Z,1006.39
2023-05-14T10:28:54.922Z,1006.42
2023-05-14T10:29:54.980Z,1006.44
2023-05-14T10:30:54.905Z,1006.44
2023-05-14T10:31:54.939Z,1006.42
2023-05-14T10:32:54.886Z,1006.45
2023-05-14T10:33:54.798Z,1006.45
2023-05-14T10:34:54.784Z,1006.45
2023-05-14T10:35:54.795Z,1006.41
2023-05-14T10:36:54.824Z,1006.43
2023-05-14T10:37:54.792Z,1006.43
2023-05-14T10:38:54.734Z,1006.44
2023-05-14T10:39:54.753Z,1006.43
2023-05-14T10:40:54.757Z,1006.44
2023-05-14T10:41:54.729Z,1006.43
2023-05-14T10:42:54.792Z,1006.46
2023-05-14T10:43:54.772Z,1006.46
2023-05-14T10:44:54.682Z,1006.47
2023-05-14T10:45:54.694Z,1006.46
2023-05-14T10:46:54.742Z,1006.46
2023-05-14T10:47:54.778Z,1006.43
2023-05-14T10:48:54.752Z,1006.46
2023-05-14T10:49:54.664Z,1006.44
2023-05-14T10:50:54.765Z,1006.42
2023-05-14T10:51:54.631Z,1006.41
2023-05-14T10:52:54.690Z,1006.40
2023-05-14T10:53:54.590Z,1006.41
2023-05-14T10:54:54.701Z,1006.39
2023-05-14T10:55:54.598Z,1006.39
2023-05-14T10:56:54.579Z,1006.37
2023-05-14T10:57:54.817Z,1006.38
2023-05-14T10:58:54.532Z,1006.37
2023-05-14T10:59:54.564Z,1006.37
2023-05-14T11:00:54.548Z,1006.35
2023-05-14T11:01:54.611Z,1006.36
2023-05-14T11:02:54.553Z,1006.33
2023-05-14T11:03:54.524Z,1006.32
2023-05-14T11:04:54.468Z,1006.35
2023-05-14T11:05:54.498Z,1006.32
2023-05-14T11:06:54.486Z,1006.32
2023-05-14T11:07:54.483Z,1006.33
2023-05-14T11:08:54.434Z,1006.31
2023-05-14T11:09:54.418Z,1006.29
2023-05-14T11:10:54.448Z,1006.29
2023-05-14T11:11:54.442Z,1006.29
2023-05-14T11:12:54.844Z,1006.28
2023-05-14T11:13:54.396Z,1006.27
2023-05-14T11:14:54.373Z,1006.24
2023-05-14T11:15:54.379Z,1006.25
2023-05-14T11:16:54.419Z,1006.22
2023-05-14T11:17:54.461Z,1006.22
2023-05-14T11:18:54.511Z,1006.24
2023-05-14T11:19:54.554Z,1006.22
2023-05-14T11:20:54.339Z,1006.20
2023-05-14T11:21:54.702Z,1006.20
2023-05-14T11:22:54.309Z,1006.19
2023-05-14T11:23:54.322Z,1006.18
2023-05-14T11:24:54.283Z,1006.19
2023-05-14T11:25:54.352Z,1006.18
2023-05-14T11:26:54.355Z,1006.18
2023-05-14T11:27:54.392Z,1006.15
2023-05-14T11:28:54.249Z,1006.14
2023-05-14T11:29:54.376Z,1006.14
2023-05-14T11:30:54.240Z,1006.17
2023-05-14T11:31:54.300Z,1006.17
2023-05-14T11:32:54.330Z,1006.19
2023-05-14T11:33:54.299Z,1006.18
2023-05-14T11:34:54.193Z,1006.17
2023-05-14T11:35:54.212Z,1006.17
2023-05-14T11:36:54.154Z,1006.14
2023-05-14T11:37:54.214Z,1006.16
2023-05-14T11:38:54.196Z,1006.20
2023-05-14T11:39:54.287Z,1006.16
2023-05-14T11:40:54.145Z,1006.15
2023-05-14T11:41:54.139Z,1006.12
2023-05-14T11:42:54.157Z,1006.12
2023-05-14T11:43:54.218Z,1006.09
2023-05-14T11:44:54.243Z,1006.06
2023-05-14T11:45:54.191Z,1006.01
2023-05-14T11:46:54.075Z,1005.99
2023-05-14T11:47:54.227Z,1006.01
2023-05-14T11:48:54.025Z,1006.01
2023-05-14T11:49:54.076Z,1005.99
2023-05-14T11:50:54.014Z,1005.98
2023-05-14T11:51:54.052Z,1005.98
2023-05-14T11:52:54.163Z,1005.97
2023-05-14T11:53:54.109Z,1005.97
2023-05-14T11:54:54.072Z,1005.97
2023-05-14T11:55:54.014Z,1005.97
2023-05-14T11:56:54.016Z,1005.96
2023-05-14T11:57:53.958Z,1005.93
2023-05-14T11:58:53.945Z,1005.95
2023-05-14T11:59:53.938Z,1005.94
2023-05-14T12:00:53.962Z,1005.95
2023-05-14T12:01:53.915Z,1005.92
2023-05-14T12:02:54.079Z,1005.89
2023-05-14T12:03:53.926Z,1005.88
2023-05-14T12:04:54.346Z,1005.87